WetterOnline ( https://www.wetteronline.de )

Wetter aktuell Ulm

Aktuelles Wetter: Ulm-Mähringen (592m)

6-stündlich | Neueste Meldungen
Ortszeit Temperatur Wetter
Do, 25.04. 2:00 5.3° C fast wolkenlos
Mi, 24.04. 20:00 21.0° C bewölkt
Mi, 24.04. 14:00 21.9° C leicht bewölkt
Mi, 24.04. 8:00 9.5° C wolkenlos
Mi, 24.04. 2:00 8.1° C wolkig
Di, 23.04. 20:00 17.5° C bedeckt
Di, 23.04. 14:00 16.9° C bedeckt
Di, 23.04. 8:00 8.8° C wolkig
Ortszeit Temperatur Wetter
Do, 25.04. 7:30 6.3° C wolkenlos
Do, 25.04. 7:20 6.3° C wolkenlos
Do, 25.04. 7:10 6.1° C wolkenlos
Do, 25.04. 7:00 5.3° C fast wolkenlos
Do, 25.04. 6:50 5.3° C fast wolkenlos
Do, 25.04. 6:40 4.8° C leicht bewölkt
Do, 25.04. 6:30 3.9° C bewölkt
Do, 25.04. 6:00 3.9° C bedeckt
Do, 25.04. 5:30 3.6° C bedeckt
Do, 25.04. 5:00 3.1° C leicht bewölkt
Do, 25.04. 4:30 3.4° C wolkig
Ortszeit Relative Feuchte Sichtweite
Do, 25.04. 2:00 83% 70 km
Mi, 24.04. 20:00 29% 65 km
Mi, 24.04. 14:00 37% 23 km
Mi, 24.04. 8:00 76% 23 km
Mi, 24.04. 2:00 86% 29 km
Di, 23.04. 20:00 56% 60 km
Di, 23.04. 14:00 51% 23 km
Di, 23.04. 8:00 75% 30 km
Ortszeit Relative Feuchte Sichtweite
Do, 25.04. 7:30 83% 70 km
Do, 25.04. 7:20 83% -
Do, 25.04. 7:10 82% -
Do, 25.04. 7:00 85% 70 km
Do, 25.04. 6:50 85% -
Do, 25.04. 6:40 87% -
Do, 25.04. 6:30 90% 70 km
Do, 25.04. 6:00 90% 70 km
Do, 25.04. 5:30 89% 70 km
Do, 25.04. 5:00 92% 55 km
Do, 25.04. 4:30 89% 60 km
Ortszeit Niederschlagsmenge Niederschlagsart
Do, 25.04. 2:00 0.0 l/m2 in 6 Std. -
Mi, 24.04. 20:00 0.0 l/m2 in 12 Std. -
Mi, 24.04. 14:00 0.0 l/m2 in 6 Std. -
Mi, 24.04. 8:00 0.0 l/m2 in 12 Std. -
Mi, 24.04. 2:00 0.0 l/m2 in 6 Std. -
Di, 23.04. 20:00 0.0 l/m2 in 12 Std. -
Di, 23.04. 14:00 0.0 l/m2 in 6 Std. -
Di, 23.04. 8:00 0.0 l/m2 in 12 Std. -
Ortszeit Niederschlagsmenge Niederschlagsart
Do, 25.04. 7:30 0.0 l/m2 in 1 Std. -
Do, 25.04. 7:20 keine Meldung -
Do, 25.04. 7:10 keine Meldung -
Do, 25.04. 7:00 0.0 l/m2 in 1 Std. -
Do, 25.04. 6:50 keine Meldung -
Do, 25.04. 6:40 keine Meldung -
Do, 25.04. 6:30 0.0 l/m2 in 1 Std. -
Do, 25.04. 6:00 0.0 l/m2 in 1 Std. -
Do, 25.04. 5:30 0.0 l/m2 in 1 Std. -
Do, 25.04. 5:00 0.0 l/m2 in 1 Std. -
Do, 25.04. 4:30 0.0 l/m2 in 1 Std. -
Ortszeit Stärke Spitze Richtung
km/h Bft. km/h Grad Sektor
Do, 25.04. 2:00 4 1 68 60° NO
Mi, 24.04. 20:00 28 4 50 210° SW
Mi, 24.04. 14:00 11 2 32 130° SO
Mi, 24.04. 8:00 4 1 11 40° NO
Mi, 24.04. 2:00 7 2 25 30° NO
Di, 23.04. 20:00 15 3 28 60° NO
Di, 23.04. 14:00 18 3 25 90° O
Di, 23.04. 8:00 11 2 25 60° NO
Ortszeit Stärke Spitze Richtung
km/h Bft. km/h Grad Sektor
Do, 25.04. 7:30 7 2 9 50° NO
Do, 25.04. 7:20 7 2 - 50° NO
Do, 25.04. 7:10 6 1 - 40° NO
Do, 25.04. 7:00 6 1 13 40° NO
Do, 25.04. 6:50 6 1 - 40° NO
Do, 25.04. 6:40 7 2 - 40° NO
Do, 25.04. 6:30 4 1 7 20° N
Do, 25.04. 6:00 4 1 7 10° N
Do, 25.04. 5:30 4 1 7 10° N
Do, 25.04. 5:00 4 1 11 30° NO
Do, 25.04. 4:30 7 2 7 30° NO
Ortszeit Untergrenze Bedeckung Gattung
total tief tief mittel hoch
Do, 25.04. 2:00 8100 m 1/8 0/8 - - -
Mi, 24.04. 20:00 3600 m 8/8 6/8 - - -
Mi, 24.04. 14:00 9000 m 7/8 0/8 - - -
Mi, 24.04. 8:00 - 0/8 0/8 - - -
Mi, 24.04. 2:00 4500 m 5/8 5/8 - - -
Di, 23.04. 20:00 6300 m 8/8 8/8 - - -
Di, 23.04. 14:00 3000 m 8/8 8/8 - - -
Di, 23.04. 8:00 8700 m 7/8 0/8 - - -
Ortszeit Bedeckungsgrad in Achtel und Wolkenuntergrenze
Do, 25.04. 7:30 keine Wolken
Do, 25.04. 7:20 keine Wolken
Do, 25.04. 7:10 keine Wolken
Do, 25.04. 7:00 1(6600m)
Do, 25.04. 6:50 1(6600m)
Do, 25.04. 6:40 2(6300m) 3(7200m)
Do, 25.04. 6:30 4(5400m) 6(6000m) 7(7200m)
Do, 25.04. 6:00 8(5100m)
Do, 25.04. 5:30 6(5700m) 8(6900m)
Do, 25.04. 5:00 2(5400m) 5(7500m) 5(8100m)
Do, 25.04. 4:30 1(5100m) 7(7800m) 7(8400m)
Ortszeit Luftdruck NN (hPa) Tendenz (hPa in 3 Std.)
Do, 25.04. 2:00 1012 + 1,2
Mi, 24.04. 20:00 1003 + 2,3
Mi, 24.04. 14:00 1001 - 0,5
Mi, 24.04. 8:00 1004 + 1,4
Mi, 24.04. 2:00 1002 + 0,8
Di, 23.04. 20:00 997 - 0,1
Di, 23.04. 14:00 998 - 0,2
Di, 23.04. 8:00 1001 - 0,6
Ortszeit Luftdruck NN (hPa) Tendenz (hPa in 3 Std.)
Do, 25.04. 7:30 1012 + 0,2
Do, 25.04. 7:20 1012 keine Meldung
Do, 25.04. 7:10 1012 keine Meldung
Do, 25.04. 7:00 1013 + 0,4
Do, 25.04. 6:50 1013 keine Meldung
Do, 25.04. 6:40 1013 keine Meldung
Do, 25.04. 6:30 1013 + 0,3
Do, 25.04. 6:00 1013 + 0,2
Do, 25.04. 5:30 1013 + 0,3
Do, 25.04. 5:00 1013 + 0,3
Do, 25.04. 4:30 1013 + 0,6
Ortszeit Schneehöhe (cm)
Do, 25.04. 2:00 0
Mi, 24.04. 20:00 0
Mi, 24.04. 14:00 0
Mi, 24.04. 8:00 0
Mi, 24.04. 2:00 0
Di, 23.04. 20:00 0
Di, 23.04. 14:00 0
Di, 23.04. 8:00 0
Ortszeit Schneehöhe (cm)
Do, 25.04. 7:30 0
Do, 25.04. 7:20 0
Do, 25.04. 7:10 0
Do, 25.04. 7:00 0
Do, 25.04. 6:50 0
Do, 25.04. 6:40 0
Do, 25.04. 6:30 0
Do, 25.04. 6:00 0
Do, 25.04. 5:30 0
Do, 25.04. 5:00 0
Do, 25.04. 4:30 0
Link zu dieser Seite / Seite empfehlen

Das Wetter in ...